createdAt,value
2018-08-19T00:02:26.025Z,92.55
2018-08-19T00:05:10.335Z,93.49
2018-08-19T00:07:40.108Z,92.95
2018-08-19T00:10:09.915Z,93.98
2018-08-19T00:12:43.931Z,93.13
2018-08-19T00:15:14.323Z,92.65
2018-08-19T00:17:44.370Z,94.07
2018-08-19T00:20:14.903Z,93.40
2018-08-19T00:22:44.786Z,93.82
2018-08-19T00:25:24.138Z,93.59
2018-08-19T00:27:54.028Z,93.58
2018-08-19T00:30:23.916Z,94.07
2018-08-19T00:32:53.617Z,93.33
2018-08-19T00:35:23.585Z,93.90
2018-08-19T00:37:53.250Z,93.88
2018-08-19T00:40:23.812Z,93.56
2018-08-19T00:42:53.535Z,93.62
2018-08-19T00:45:23.642Z,93.90
2018-08-19T00:47:53.362Z,94.02
2018-08-19T00:50:24.389Z,93.83
2018-08-19T00:52:54.793Z,94.49
2018-08-19T00:55:25.206Z,93.50
2018-08-19T00:58:01.218Z,94.68
2018-08-19T01:00:31.251Z,94.02
2018-08-19T01:03:00.965Z,94.33
2018-08-19T01:05:30.952Z,94.16
2018-08-19T01:08:01.022Z,94.04
2018-08-19T01:10:30.889Z,94.15
2018-08-19T01:13:00.651Z,94.14
2018-08-19T01:15:30.534Z,93.97
2018-08-19T01:18:00.247Z,93.77
2018-08-19T01:20:30.172Z,94.18
2018-08-19T01:22:59.872Z,94.06
2018-08-19T01:25:29.782Z,94.87
2018-08-19T01:27:59.637Z,93.54
2018-08-19T01:30:29.618Z,94.13
2018-08-19T01:32:59.215Z,94.18
2018-08-19T01:35:33.095Z,94.42
2018-08-19T01:38:02.785Z,93.90
2018-08-19T01:40:32.473Z,94.60
2018-08-19T01:43:02.269Z,94.80
2018-08-19T01:45:32.244Z,94.72
2018-08-19T01:48:01.891Z,94.35
2018-08-19T01:50:31.662Z,94.71
2018-08-19T01:53:01.333Z,94.89
2018-08-19T01:55:32.499Z,93.85
2018-08-19T01:58:02.191Z,94.28
2018-08-19T02:00:32.079Z,94.96
2018-08-19T02:03:06.078Z,95.13
2018-08-19T02:05:35.882Z,94.77
2018-08-19T02:08:05.951Z,94.36
2018-08-19T02:10:36.408Z,94.85
2018-08-19T02:13:06.179Z,95.16
2018-08-19T02:15:36.029Z,94.43
2018-08-19T02:18:06.503Z,95.04
2018-08-19T02:20:39.187Z,94.70
2018-08-19T02:23:11.162Z,95.09
2018-08-19T02:25:43.448Z,94.45
2018-08-19T02:28:13.873Z,94.05
2018-08-19T02:31:02.800Z,93.84
2018-08-19T02:33:35.094Z,94.55
2018-08-19T02:36:07.774Z,94.85
2018-08-19T02:38:38.787Z,95.16
2018-08-19T02:41:08.574Z,94.97
2018-08-19T02:43:47.625Z,94.98
2018-08-19T02:46:17.610Z,95.55
2018-08-19T02:48:50.839Z,94.81
2018-08-19T02:51:21.525Z,94.42
2018-08-19T02:53:52.415Z,95.05
2018-08-19T02:56:22.266Z,95.35
2018-08-19T02:58:51.969Z,95.63
2018-08-19T03:01:21.735Z,95.08
2018-08-19T03:03:51.532Z,95.47
2018-08-19T03:06:21.322Z,95.30
2018-08-19T03:08:56.113Z,94.99
2018-08-19T03:11:26.185Z,95.35
2018-08-19T03:13:56.210Z,94.99
2018-08-19T03:16:26.014Z,95.08
2018-08-19T03:18:55.901Z,95.51
2018-08-19T03:21:25.723Z,95.32
2018-08-19T03:23:55.416Z,95.26
2018-08-19T03:26:25.196Z,95.28
2018-08-19T03:28:55.088Z,94.86
2018-08-19T03:31:24.896Z,94.86
2018-08-19T03:33:54.711Z,95.44
2018-08-19T03:36:24.560Z,95.64
2018-08-19T03:38:55.977Z,94.87
2018-08-19T03:41:25.902Z,94.89
2018-08-19T03:43:59.462Z,95.06
2018-08-19T03:46:31.302Z,95.31
2018-08-19T03:49:01.070Z,95.65
2018-08-19T03:51:30.801Z,95.90
2018-08-19T03:54:00.490Z,94.65
2018-08-19T03:56:30.249Z,95.41
2018-08-19T03:59:00.980Z,95.24
2018-08-19T04:01:41.549Z,95.20
2018-08-19T04:04:12.372Z,95.68
2018-08-19T04:06:42.085Z,95.24
2018-08-19T04:09:11.851Z,95.34
2018-08-19T04:11:41.553Z,95.87
2018-08-19T04:14:26.333Z,95.52
2018-08-19T04:16:58.805Z,96.06
2018-08-19T04:19:29.342Z,96.23
2018-08-19T04:22:01.556Z,95.67
2018-08-19T04:24:31.954Z,96.14
2018-08-19T04:27:07.294Z,95.61
2018-08-19T04:29:38.194Z,95.96
2018-08-19T04:32:17.055Z,95.26
2018-08-19T04:34:50.241Z,96.25
2018-08-19T04:37:20.821Z,95.40
2018-08-19T04:39:50.681Z,95.67
2018-08-19T04:42:20.610Z,95.30
2018-08-19T04:44:50.542Z,95.86
2018-08-19T04:47:32.262Z,95.67
2018-08-19T04:50:03.174Z,95.95
2018-08-19T04:52:38.863Z,95.49
2018-08-19T04:55:22.370Z,96.02
2018-08-19T04:57:52.055Z,96.44
2018-08-19T05:00:22.022Z,96.47
2018-08-19T05:02:51.616Z,95.84
2018-08-19T05:05:21.375Z,95.79
2018-08-19T05:07:50.961Z,95.52
2018-08-19T05:10:20.885Z,95.35
2018-08-19T05:12:50.776Z,96.04
2018-08-19T05:15:20.641Z,95.96
2018-08-19T05:17:50.236Z,95.39
2018-08-19T05:20:20.478Z,94.88
2018-08-19T05:22:50.158Z,95.75
2018-08-19T05:25:20.161Z,94.29
2018-08-19T05:27:57.837Z,94.72
2018-08-19T05:30:27.957Z,93.90
2018-08-19T05:33:02.037Z,92.38
2018-08-19T05:35:33.545Z,90.87
2018-08-19T05:38:04.197Z,91.09
2018-08-19T05:40:33.837Z,89.53
2018-08-19T05:43:03.561Z,88.32
2018-08-19T05:45:34.757Z,86.83
2018-08-19T05:48:12.878Z,87.01
2018-08-19T05:50:42.677Z,85.12
2018-08-19T05:53:12.258Z,84.80
2018-08-19T05:55:42.230Z,82.53
2018-08-19T05:58:11.960Z,82.61
2018-08-19T06:00:46.898Z,80.85
2018-08-19T06:03:17.399Z,78.47
2018-08-19T06:05:48.133Z,80.14
2018-08-19T06:08:18.119Z,77.78
2018-08-19T06:10:47.985Z,77.01
2018-08-19T06:13:17.717Z,76.73
2018-08-19T06:15:47.643Z,74.90
2018-08-19T06:18:17.485Z,76.34
2018-08-19T06:20:48.718Z,74.86
2018-08-19T06:23:18.659Z,72.23
2018-08-19T06:25:49.565Z,73.23
2018-08-19T06:28:19.309Z,70.48
2018-08-19T06:30:49.137Z,68.69
2018-08-19T06:33:20.998Z,69.30
2018-08-19T06:38:33.518Z,69.48
2018-08-19T06:41:03.778Z,69.93
2018-08-19T06:43:34.099Z,69.65
2018-08-19T06:46:04.946Z,69.41
2018-08-19T06:48:35.732Z,68.44
2018-08-19T06:51:08.512Z,68.25
2018-08-19T06:53:38.807Z,66.81
2018-08-19T06:56:09.746Z,63.58
2018-08-19T06:58:40.425Z,59.39
2018-08-19T07:01:11.904Z,61.20
2018-08-19T07:03:46.791Z,59.54
2018-08-19T07:06:18.779Z,62.87
2018-08-19T07:08:49.178Z,56.96
2018-08-19T07:11:19.082Z,55.47
2018-08-19T07:13:51.045Z,54.61
2018-08-19T07:16:22.234Z,56.56
2018-08-19T07:18:52.217Z,55.69
2018-08-19T07:21:24.524Z,54.82
2018-08-19T07:23:56.175Z,52.74
2018-08-19T07:26:27.098Z,54.91
2018-08-19T07:28:57.479Z,51.18
2018-08-19T07:31:29.220Z,56.37
2018-08-19T07:34:03.499Z,53.97
2018-08-19T07:36:36.918Z,48.94
2018-08-19T07:39:08.420Z,50.62
2018-08-19T07:41:39.080Z,49.59
2018-08-19T07:44:09.160Z,47.33
2018-08-19T07:46:50.473Z,48.44
2018-08-19T07:49:23.219Z,48.39
2018-08-19T07:51:53.840Z,44.72
2018-08-19T07:54:23.757Z,50.79
2018-08-19T07:56:54.538Z,47.51
2018-08-19T07:59:24.887Z,46.83
2018-08-19T08:01:55.672Z,47.51
2018-08-19T08:17:24.628Z,44.16
2018-08-19T08:20:08.719Z,44.58
2018-08-19T08:22:40.788Z,43.59
2018-08-19T08:25:14.580Z,41.78
2018-08-19T08:27:45.778Z,41.25
2018-08-19T08:30:17.917Z,41.24
2018-08-19T08:32:51.236Z,43.56
2018-08-19T08:35:23.719Z,44.71
2018-08-19T08:37:55.513Z,44.25
2018-08-19T08:40:27.326Z,45.15
2018-08-19T08:42:59.541Z,43.75
2018-08-19T08:45:35.279Z,47.58
2018-08-19T08:48:09.958Z,46.91
2018-08-19T08:50:42.580Z,44.92
2018-08-19T08:53:14.717Z,43.38
2018-08-19T08:58:40.569Z,43.65
2018-08-19T09:01:14.746Z,47.87
2018-08-19T09:03:54.866Z,42.75
2018-08-19T09:06:31.044Z,42.46
2018-08-19T09:09:03.467Z,45.15
2018-08-19T09:11:33.339Z,43.28
2018-08-19T09:14:03.300Z,43.87
2018-08-19T09:16:37.568Z,43.07
2018-08-19T09:19:08.919Z,44.68
2018-08-19T09:21:39.540Z,42.29
2018-08-19T09:24:09.850Z,45.13
2018-08-19T09:26:39.823Z,42.68
2018-08-19T09:29:09.460Z,40.30
2018-08-19T09:31:39.339Z,38.63
2018-08-19T09:34:09.940Z,43.23
2018-08-19T09:36:39.800Z,44.82
2018-08-19T09:39:11.580Z,43.42
2018-08-19T09:41:41.803Z,39.42
2018-08-19T09:44:11.640Z,38.75
2018-08-19T09:46:42.362Z,40.82
2018-08-19T09:49:14.407Z,42.29
2018-08-19T09:51:45.907Z,39.26
2018-08-19T09:54:20.890Z,41.98
2018-08-19T09:56:51.386Z,38.51
2018-08-19T09:59:21.619Z,40.10
2018-08-19T10:01:52.049Z,39.33
2018-08-19T10:04:26.389Z,36.50
2018-08-19T10:07:07.624Z,37.22
2018-08-19T10:09:38.679Z,39.22
2018-08-19T10:12:10.985Z,40.02
2018-08-19T10:14:41.498Z,36.81
2018-08-19T10:17:17.518Z,38.02
2018-08-19T10:19:50.779Z,38.70
2018-08-19T10:22:44.068Z,37.08
2018-08-19T10:25:17.119Z,38.22
2018-08-19T10:27:49.948Z,38.58
2018-08-19T10:30:20.618Z,35.74
2018-08-19T10:32:59.137Z,38.85
2018-08-19T10:35:30.599Z,35.30
2018-08-19T10:38:01.838Z,38.51
2018-08-19T10:40:35.078Z,38.78
2018-08-19T10:43:11.419Z,38.00
2018-08-19T10:45:46.345Z,40.24
2018-08-19T10:48:16.698Z,39.40
2018-08-19T10:50:46.507Z,38.91
2018-08-19T10:53:21.211Z,41.96
2018-08-19T10:55:50.979Z,39.25
2018-08-19T10:58:21.030Z,40.28
2018-08-19T11:00:52.698Z,38.89
2018-08-19T11:03:22.540Z,43.68
2018-08-19T11:05:54.585Z,36.04
2018-08-19T11:08:24.481Z,38.13
2018-08-19T11:10:54.040Z,39.34
2018-08-19T11:13:47.985Z,37.51
2018-08-19T11:16:34.269Z,35.71
2018-08-19T11:19:10.148Z,36.30
2018-08-19T11:21:51.046Z,34.76
2018-08-19T11:24:39.090Z,37.08
2018-08-19T11:27:10.717Z,35.47
2018-08-19T11:29:49.101Z,34.69
2018-08-19T11:32:38.100Z,35.87
2018-08-19T11:35:36.251Z,35.28
2018-08-19T11:38:11.529Z,35.03
2018-08-19T11:40:53.029Z,32.24
2018-08-19T11:43:43.269Z,34.16
2018-08-19T11:46:25.145Z,36.87
2018-08-19T11:49:01.405Z,38.14
2018-08-19T11:54:29.354Z,35.09
2018-08-19T11:57:05.013Z,32.57
2018-08-19T11:59:42.365Z,40.20
2018-08-19T12:02:24.809Z,34.98
2018-08-19T12:04:54.555Z,35.48
2018-08-19T12:07:24.657Z,34.20
2018-08-19T12:09:59.872Z,35.48
2018-08-19T12:13:00.445Z,35.09
2018-08-19T12:15:30.660Z,39.44
2018-08-19T12:18:00.596Z,34.54
2018-08-19T12:20:34.368Z,36.06
2018-08-19T12:23:05.686Z,34.41
2018-08-19T12:25:36.065Z,36.73
2018-08-19T12:28:06.349Z,33.85
2018-08-19T12:30:36.591Z,34.41
2018-08-19T12:33:20.684Z,34.39
2018-08-19T12:35:52.115Z,34.34
2018-08-19T12:38:22.112Z,33.97
2018-08-19T12:40:52.698Z,33.14
2018-08-19T12:43:22.688Z,33.00
2018-08-19T12:45:52.611Z,33.40
2018-08-19T12:48:22.609Z,29.77
2018-08-19T12:50:57.147Z,30.80
2018-08-19T12:53:27.292Z,31.47
2018-08-19T12:56:00.307Z,30.35
2018-08-19T12:58:38.908Z,29.21
2018-08-19T13:01:09.567Z,29.97
2018-08-19T13:03:39.407Z,29.93
2018-08-19T13:06:09.637Z,33.32
2018-08-19T13:08:39.488Z,30.66
2018-08-19T13:11:09.680Z,31.27
2018-08-19T13:13:39.888Z,28.45
2018-08-19T13:18:47.131Z,33.69
2018-08-19T13:21:19.322Z,30.12
2018-08-19T13:23:50.128Z,30.50
2018-08-19T13:26:20.367Z,32.17
2018-08-19T13:28:54.065Z,28.99
2018-08-19T13:31:28.501Z,31.15
2018-08-19T13:34:01.648Z,30.40
2018-08-19T13:36:43.506Z,32.08
2018-08-19T13:39:13.725Z,29.88
2018-08-19T13:41:43.964Z,28.52
2018-08-19T13:44:14.719Z,28.65
2018-08-19T13:46:46.186Z,30.35
2018-08-19T13:49:19.464Z,30.54
2018-08-19T13:51:50.614Z,31.06
2018-08-19T13:54:21.146Z,31.83
2018-08-19T13:56:50.996Z,29.59
2018-08-19T13:59:21.815Z,32.11
2018-08-19T14:01:54.622Z,30.44
2018-08-19T14:04:24.866Z,29.30
2018-08-19T14:06:55.150Z,29.58
2018-08-19T14:09:25.481Z,29.32
2018-08-19T14:11:55.878Z,30.78
2018-08-19T14:14:26.247Z,29.09
2018-08-19T14:16:56.538Z,29.18
2018-08-19T14:19:32.938Z,28.62
2018-08-19T14:22:02.976Z,31.38
2018-08-19T14:24:33.384Z,31.25
2018-08-19T14:27:03.038Z,32.00
2018-08-19T14:29:38.832Z,30.29
2018-08-19T14:32:15.533Z,30.33
2018-08-19T14:34:46.221Z,32.46
2018-08-19T14:37:41.748Z,31.02
2018-08-19T14:43:13.705Z,28.53
2018-08-19T14:45:43.527Z,30.08
2018-08-19T14:48:14.066Z,29.59
2018-08-19T14:50:47.867Z,29.50
2018-08-19T14:53:18.668Z,29.20
2018-08-19T14:55:49.516Z,27.84
2018-08-19T14:58:20.448Z,28.98
2018-08-19T15:00:50.817Z,28.82
2018-08-19T15:03:21.727Z,32.52
2018-08-19T15:06:07.948Z,30.07
2018-08-19T15:08:38.311Z,37.46
2018-08-19T15:11:08.508Z,28.47
2018-08-19T15:13:38.407Z,31.08
2018-08-19T15:16:08.708Z,31.92
2018-08-19T15:18:39.307Z,30.77
2018-08-19T15:21:09.469Z,37.10
2018-08-19T15:23:41.036Z,30.22
2018-08-19T15:26:11.629Z,31.05
2018-08-19T15:28:42.317Z,30.75
2018-08-19T15:31:17.138Z,31.20
2018-08-19T15:33:53.655Z,34.34
2018-08-19T15:36:23.814Z,32.13
2018-08-19T15:38:54.358Z,29.79
2018-08-19T15:41:24.890Z,30.40
2018-08-19T15:43:56.254Z,29.67
2018-08-19T15:46:26.409Z,29.71
2018-08-19T15:49:11.449Z,30.58
2018-08-19T15:51:41.656Z,33.84
2018-08-19T15:54:12.289Z,30.64
2018-08-19T15:56:49.068Z,28.73
2018-08-19T15:59:21.038Z,38.33
2018-08-19T16:01:51.448Z,35.66
2018-08-19T16:04:23.269Z,29.11
2018-08-19T16:06:54.288Z,34.48
2018-08-19T16:09:25.836Z,37.02
2018-08-19T16:11:55.928Z,37.99
2018-08-19T16:14:29.869Z,42.01
2018-08-19T16:17:00.890Z,40.91
2018-08-19T16:19:30.976Z,42.56
2018-08-19T16:22:01.389Z,42.15
2018-08-19T16:24:31.355Z,44.58
2018-08-19T16:27:01.055Z,45.09
2018-08-19T16:29:30.968Z,37.47
2018-08-19T16:32:00.698Z,39.86
2018-08-19T16:34:30.509Z,39.68
2018-08-19T16:37:00.156Z,41.95
2018-08-19T16:39:30.049Z,42.93
2018-08-19T16:41:59.795Z,42.20
2018-08-19T16:44:29.508Z,43.36
2018-08-19T16:46:59.287Z,43.82
2018-08-19T16:49:29.265Z,44.64
2018-08-19T16:51:58.938Z,48.30
2018-08-19T16:54:28.688Z,50.00
2018-08-19T16:56:58.380Z,49.60
2018-08-19T16:59:28.034Z,52.64
2018-08-19T17:01:57.592Z,54.75
2018-08-19T17:04:27.254Z,56.07
2018-08-19T17:06:56.827Z,55.92
2018-08-19T17:09:26.654Z,57.38
2018-08-19T17:11:56.494Z,59.26
2018-08-19T17:14:26.400Z,58.12
2018-08-19T17:16:56.320Z,60.47
2018-08-19T17:19:26.780Z,59.80
2018-08-19T17:21:57.358Z,61.67
2018-08-19T17:24:27.943Z,61.58
2018-08-19T17:27:04.378Z,58.61
2018-08-19T17:29:34.357Z,60.11
2018-08-19T17:32:04.299Z,63.11
2018-08-19T17:34:34.494Z,62.49
2018-08-19T17:37:04.938Z,66.78
2018-08-19T17:39:35.150Z,66.94
2018-08-19T17:42:05.304Z,68.36
2018-08-19T17:44:36.557Z,70.07
2018-08-19T17:47:06.410Z,69.39
2018-08-19T17:49:37.487Z,69.36
2018-08-19T17:52:07.332Z,68.63
2018-08-19T17:54:36.898Z,72.04
2018-08-19T17:57:07.919Z,71.91
2018-08-19T17:59:37.783Z,75.01
2018-08-19T18:02:07.567Z,75.78
2018-08-19T18:04:42.395Z,75.81
2018-08-19T18:07:14.162Z,77.60
2018-08-19T18:09:47.758Z,75.71
2018-08-19T18:12:17.618Z,76.10
2018-08-19T18:14:47.904Z,74.79
2018-08-19T18:17:17.774Z,75.08
2018-08-19T18:19:47.530Z,74.19
2018-08-19T18:22:22.154Z,73.88
2018-08-19T18:24:57.087Z,74.90
2018-08-19T18:27:27.137Z,74.03
2018-08-19T18:29:56.809Z,74.64
2018-08-19T18:32:26.698Z,77.73
2018-08-19T18:34:56.424Z,78.67
2018-08-19T18:37:26.142Z,78.93
2018-08-19T18:39:55.703Z,79.17
2018-08-19T18:42:38.082Z,79.35
2018-08-19T18:45:11.494Z,75.87
2018-08-19T18:48:14.936Z,76.19
2018-08-19T18:50:44.461Z,74.13
2018-08-19T18:53:14.262Z,74.67
2018-08-19T18:55:43.590Z,76.05
2018-08-19T18:58:13.107Z,79.20
2018-08-19T19:00:46.865Z,78.81
2018-08-19T19:03:16.447Z,79.88
2018-08-19T19:05:45.816Z,79.42
2018-08-19T19:08:19.020Z,80.04
2018-08-19T19:10:55.075Z,78.44
2018-08-19T19:13:25.512Z,77.81
2018-08-19T19:15:55.120Z,76.97
2018-08-19T19:18:25.030Z,77.25
2018-08-19T19:21:06.005Z,76.34
2018-08-19T19:23:36.780Z,76.70
2018-08-19T19:26:07.326Z,76.93
2018-08-19T19:28:37.089Z,76.45
2018-08-19T19:31:15.405Z,80.36
2018-08-19T19:33:45.113Z,80.44
2018-08-19T19:36:20.582Z,82.75
2018-08-19T19:38:58.663Z,81.36
2018-08-19T19:41:30.988Z,78.66
2018-08-19T19:44:04.874Z,80.54
2018-08-19T19:46:34.418Z,80.61
2018-08-19T19:49:04.044Z,82.11
2018-08-19T19:51:33.484Z,82.95
2018-08-19T19:54:02.914Z,82.53
2018-08-19T19:56:32.508Z,83.98
2018-08-19T19:59:02.068Z,84.31
2018-08-19T20:01:31.979Z,84.40
2018-08-19T20:04:02.090Z,84.34
2018-08-19T20:06:31.770Z,84.46
2018-08-19T20:09:01.532Z,85.29
2018-08-19T20:11:31.930Z,85.32
2018-08-19T20:14:03.280Z,84.59
2018-08-19T20:16:32.886Z,82.49
2018-08-19T20:19:02.642Z,82.75
2018-08-19T20:21:35.670Z,83.62
2018-08-19T20:24:05.815Z,84.53
2018-08-19T20:26:37.938Z,85.47
2018-08-19T20:29:11.332Z,85.93
2018-08-19T20:31:41.787Z,86.87
2018-08-19T20:34:12.220Z,86.99
2018-08-19T20:36:47.312Z,86.84
2018-08-19T20:39:19.456Z,85.85
2018-08-19T20:41:49.171Z,85.41
2018-08-19T20:44:22.434Z,86.00
2018-08-19T20:46:58.810Z,85.20
2018-08-19T20:49:29.824Z,84.73
2018-08-19T20:52:01.505Z,84.62
2018-08-19T20:54:33.593Z,84.23
2018-08-19T20:57:05.302Z,84.04
2018-08-19T20:59:36.488Z,85.44
2018-08-19T21:02:08.985Z,85.21
2018-08-19T21:04:38.805Z,86.32
2018-08-19T21:07:09.759Z,86.57
2018-08-19T21:09:41.885Z,86.59
2018-08-19T21:12:12.822Z,87.31
2018-08-19T21:14:43.731Z,86.56
2018-08-19T21:17:16.521Z,87.55
2018-08-19T21:19:48.680Z,87.30
2018-08-19T21:22:20.100Z,87.09
2018-08-19T21:24:51.375Z,87.57
2018-08-19T21:27:22.699Z,88.46
2018-08-19T21:29:53.556Z,86.96
2018-08-19T21:32:24.861Z,86.22
2018-08-19T21:34:56.249Z,87.08
2018-08-19T21:37:35.355Z,87.00
2018-08-19T21:40:06.083Z,87.54
2018-08-19T21:42:46.074Z,87.37
2018-08-19T21:45:15.589Z,87.09
2018-08-19T21:47:45.395Z,86.95
2018-08-19T21:50:14.828Z,86.91
2018-08-19T21:53:01.861Z,86.23
2018-08-19T21:55:33.689Z,85.57
2018-08-19T21:58:03.795Z,85.44
2018-08-19T22:00:36.263Z,85.32
2018-08-19T22:03:11.068Z,85.74
2018-08-19T22:05:40.750Z,85.00
2018-08-19T22:08:10.347Z,83.99
2018-08-19T22:10:40.021Z,83.79
2018-08-19T22:13:09.556Z,84.61
2018-08-19T22:15:40.410Z,84.32
2018-08-19T22:18:12.143Z,86.22
2018-08-19T22:20:47.464Z,86.00
2018-08-19T22:23:17.234Z,87.32
2018-08-19T22:25:46.831Z,87.27
2018-08-19T22:28:16.427Z,87.96
2018-08-19T22:30:46.062Z,88.31
2018-08-19T22:33:15.794Z,88.76
2018-08-19T22:35:45.381Z,88.38
2018-08-19T22:38:20.245Z,88.85
2018-08-19T22:40:50.351Z,89.29
2018-08-19T22:43:21.436Z,89.30
2018-08-19T22:45:50.931Z,88.98
2018-08-19T22:48:36.344Z,88.79
2018-08-19T22:51:06.657Z,89.90
2018-08-19T22:53:36.304Z,89.29
2018-08-19T22:56:06.100Z,90.14
2018-08-19T22:58:36.557Z,90.81
2018-08-19T23:01:06.535Z,90.69
2018-08-19T23:03:36.408Z,90.43
2018-08-19T23:06:06.159Z,91.11
2018-08-19T23:08:35.939Z,89.90
2018-08-19T23:11:05.955Z,89.70
2018-08-19T23:13:46.079Z,89.78
2018-08-19T23:16:15.628Z,91.10
2018-08-19T23:18:45.389Z,90.57
2018-08-19T23:21:14.997Z,90.40
2018-08-19T23:23:44.592Z,90.96
2018-08-19T23:26:14.043Z,91.41
2018-08-19T23:28:43.644Z,91.78
2018-08-19T23:31:13.203Z,91.52
2018-08-19T23:33:42.824Z,91.68
2018-08-19T23:36:12.263Z,92.39
2018-08-19T23:38:41.868Z,91.64
2018-08-19T23:41:11.350Z,91.29
2018-08-19T23:43:40.938Z,91.20
2018-08-19T23:46:10.397Z,91.79
2018-08-19T23:48:40.096Z,91.60
2018-08-19T23:51:12.716Z,91.76
2018-08-19T23:53:42.269Z,91.91
2018-08-19T23:56:11.743Z,92.70
2018-08-19T23:58:44.003Z,92.17
